sensor_id;sensor_type;location;lat;lon;timestamp;temperature;humidity
39751;DHT22;37579;51.074;17.004;2024-02-28T00:01:52;24.60;57.60
39751;DHT22;37579;51.074;17.004;2024-02-28T00:04:18;24.60;57.60
39751;DHT22;37579;51.074;17.004;2024-02-28T00:06:44;24.60;57.60
39751;DHT22;37579;51.074;17.004;2024-02-28T00:09:12;24.60;57.60
39751;DHT22;37579;51.074;17.004;2024-02-28T00:11:43;24.60;57.60
39751;DHT22;37579;51.074;17.004;2024-02-28T00:14:10;24.60;57.70
39751;DHT22;37579;51.074;17.004;2024-02-28T00:16:36;24.60;57.60
39751;DHT22;37579;51.074;17.004;2024-02-28T00:19:02;24.60;57.70
39751;DHT22;37579;51.074;17.004;2024-02-28T00:21:28;24.60;57.70
39751;DHT22;37579;51.074;17.004;2024-02-28T00:23:53;24.60;57.70
39751;DHT22;37579;51.074;17.004;2024-02-28T00:26:19;24.60;57.60
39751;DHT22;37579;51.074;17.004;2024-02-28T00:28:45;24.60;57.60
39751;DHT22;37579;51.074;17.004;2024-02-28T00:31:11;24.60;57.60
39751;DHT22;37579;51.074;17.004;2024-02-28T00:33:36;24.60;57.60
39751;DHT22;37579;51.074;17.004;2024-02-28T00:36:02;24.60;57.70
39751;DHT22;37579;51.074;17.004;2024-02-28T00:38:28;24.60;57.60
39751;DHT22;37579;51.074;17.004;2024-02-28T00:40:54;24.60;57.60
39751;DHT22;37579;51.074;17.004;2024-02-28T00:43:20;24.60;57.70
39751;DHT22;37579;51.074;17.004;2024-02-28T00:45:45;24.60;57.80
39751;DHT22;37579;51.074;17.004;2024-02-28T00:48:11;24.50;57.80
39751;DHT22;37579;51.074;17.004;2024-02-28T00:50:37;24.50;57.90
39751;DHT22;37579;51.074;17.004;2024-02-28T00:53:03;24.50;57.90
39751;DHT22;37579;51.074;17.004;2024-02-28T00:55:28;24.50;57.90
39751;DHT22;37579;51.074;17.004;2024-02-28T00:57:54;24.60;57.70
39751;DHT22;37579;51.074;17.004;2024-02-28T01:00:20;24.60;57.60
39751;DHT22;37579;51.074;17.004;2024-02-28T01:02:46;24.70;57.50
39751;DHT22;37579;51.074;17.004;2024-02-28T01:05:11;24.70;57.40
39751;DHT22;37579;51.074;17.004;2024-02-28T01:07:37;24.70;57.30
39751;DHT22;37579;51.074;17.004;2024-02-28T01:10:03;24.70;57.30
39751;DHT22;37579;51.074;17.004;2024-02-28T01:12:29;24.80;57.30
39751;DHT22;37579;51.074;17.004;2024-02-28T01:14:55;24.70;57.20
39751;DHT22;37579;51.074;17.004;2024-02-28T01:17:21;24.80;57.30
39751;DHT22;37579;51.074;17.004;2024-02-28T01:19:47;24.70;57.20
39751;DHT22;37579;51.074;17.004;2024-02-28T01:22:13;24.70;57.20
39751;DHT22;37579;51.074;17.004;2024-02-28T01:24:38;24.70;57.30
39751;DHT22;37579;51.074;17.004;2024-02-28T01:27:04;24.70;57.30
39751;DHT22;37579;51.074;17.004;2024-02-28T01:29:30;24.60;57.20
39751;DHT22;37579;51.074;17.004;2024-02-28T01:31:56;24.70;57.30
39751;DHT22;37579;51.074;17.004;2024-02-28T01:34:22;24.60;57.30
39751;DHT22;37579;51.074;17.004;2024-02-28T01:36:48;24.60;57.30
39751;DHT22;37579;51.074;17.004;2024-02-28T01:39:13;24.60;57.30
39751;DHT22;37579;51.074;17.004;2024-02-28T01:41:39;24.60;57.40
39751;DHT22;37579;51.074;17.004;2024-02-28T01:44:05;24.60;57.40
39751;DHT22;37579;51.074;17.004;2024-02-28T01:46:31;24.60;57.30
39751;DHT22;37579;51.074;17.004;2024-02-28T01:48:58;24.60;57.30
39751;DHT22;37579;51.074;17.004;2024-02-28T01:51:25;24.60;57.20
39751;DHT22;37579;51.074;17.004;2024-02-28T01:53:53;24.60;57.20
39751;DHT22;37579;51.074;17.004;2024-02-28T01:56:20;24.60;57.10
39751;DHT22;37579;51.074;17.004;2024-02-28T01:58:49;24.60;57.20
39751;DHT22;37579;51.074;17.004;2024-02-28T02:01:16;24.60;57.20
39751;DHT22;37579;51.074;17.004;2024-02-28T02:03:47;24.60;57.20
39751;DHT22;37579;51.074;17.004;2024-02-28T02:06:13;24.60;57.10
39751;DHT22;37579;51.074;17.004;2024-02-28T02:08:39;24.60;57.10
39751;DHT22;37579;51.074;17.004;2024-02-28T02:11:05;24.60;57.10
39751;DHT22;37579;51.074;17.004;2024-02-28T02:13:34;24.60;57.10
39751;DHT22;37579;51.074;17.004;2024-02-28T02:16:01;24.60;57.20
39751;DHT22;37579;51.074;17.004;2024-02-28T02:18:27;24.60;57.10
39751;DHT22;37579;51.074;17.004;2024-02-28T02:21:02;24.60;57.10
39751;DHT22;37579;51.074;17.004;2024-02-28T02:23:30;24.60;57.10
39751;DHT22;37579;51.074;17.004;2024-02-28T02:25:57;24.60;57.10
39751;DHT22;37579;51.074;17.004;2024-02-28T02:28:22;24.60;57.10
39751;DHT22;37579;51.074;17.004;2024-02-28T02:30:48;24.60;57.10
39751;DHT22;37579;51.074;17.004;2024-02-28T02:33:14;24.60;57.10
39751;DHT22;37579;51.074;17.004;2024-02-28T02:35:40;24.60;57.10
39751;DHT22;37579;51.074;17.004;2024-02-28T02:38:06;24.60;57.00
39751;DHT22;37579;51.074;17.004;2024-02-28T02:40:32;24.60;57.00
39751;DHT22;37579;51.074;17.004;2024-02-28T02:42:58;24.60;56.90
39751;DHT22;37579;51.074;17.004;2024-02-28T02:45:23;24.60;56.90
39751;DHT22;37579;51.074;17.004;2024-02-28T02:47:49;24.60;56.80
39751;DHT22;37579;51.074;17.004;2024-02-28T02:50:15;24.60;56.80
39751;DHT22;37579;51.074;17.004;2024-02-28T02:52:41;24.60;56.70
39751;DHT22;37579;51.074;17.004;2024-02-28T02:55:07;24.60;56.70
39751;DHT22;37579;51.074;17.004;2024-02-28T02:57:33;24.70;56.70
39751;DHT22;37579;51.074;17.004;2024-02-28T02:59:59;24.70;56.60
39751;DHT22;37579;51.074;17.004;2024-02-28T03:02:24;24.70;56.50
39751;DHT22;37579;51.074;17.004;2024-02-28T03:04:50;24.70;56.60
39751;DHT22;37579;51.074;17.004;2024-02-28T03:07:16;24.70;56.60
39751;DHT22;37579;51.074;17.004;2024-02-28T03:09:42;24.70;56.50
39751;DHT22;37579;51.074;17.004;2024-02-28T03:12:08;24.70;56.40
39751;DHT22;37579;51.074;17.004;2024-02-28T03:14:35;24.70;56.40
39751;DHT22;37579;51.074;17.004;2024-02-28T03:17:01;24.70;56.40
39751;DHT22;37579;51.074;17.004;2024-02-28T03:19:27;24.70;56.30
39751;DHT22;37579;51.074;17.004;2024-02-28T03:21:53;24.70;56.40
39751;DHT22;37579;51.074;17.004;2024-02-28T03:24:19;24.70;56.40
39751;DHT22;37579;51.074;17.004;2024-02-28T03:26:45;24.70;56.40
39751;DHT22;37579;51.074;17.004;2024-02-28T03:29:10;24.70;56.30
39751;DHT22;37579;51.074;17.004;2024-02-28T03:31:36;24.70;56.30
39751;DHT22;37579;51.074;17.004;2024-02-28T03:34:02;24.70;56.30
39751;DHT22;37579;51.074;17.004;2024-02-28T03:36:28;24.70;56.30
39751;DHT22;37579;51.074;17.004;2024-02-28T03:38:54;24.70;56.30
39751;DHT22;37579;51.074;17.004;2024-02-28T03:41:20;24.70;56.30
39751;DHT22;37579;51.074;17.004;2024-02-28T03:43:46;24.70;56.30
39751;DHT22;37579;51.074;17.004;2024-02-28T03:46:12;24.70;56.20
39751;DHT22;37579;51.074;17.004;2024-02-28T03:48:38;24.70;56.80
39751;DHT22;37579;51.074;17.004;2024-02-28T03:51:03;24.70;56.20
39751;DHT22;37579;51.074;17.004;2024-02-28T03:53:30;24.70;56.30
39751;DHT22;37579;51.074;17.004;2024-02-28T03:55:56;24.60;56.20
39751;DHT22;37579;51.074;17.004;2024-02-28T03:58:21;24.70;56.20
39751;DHT22;37579;51.074;17.004;2024-02-28T04:00:47;24.70;56.20
39751;DHT22;37579;51.074;17.004;2024-02-28T04:03:13;24.70;56.20
39751;DHT22;37579;51.074;17.004;2024-02-28T04:05:40;24.70;56.20
39751;DHT22;37579;51.074;17.004;2024-02-28T04:08:06;24.60;56.30
39751;DHT22;37579;51.074;17.004;2024-02-28T04:10:32;24.60;56.30
39751;DHT22;37579;51.074;17.004;2024-02-28T04:12:57;24.60;56.40
39751;DHT22;37579;51.074;17.004;2024-02-28T04:15:23;24.60;56.30
39751;DHT22;37579;51.074;17.004;2024-02-28T04:17:51;24.60;56.30
39751;DHT22;37579;51.074;17.004;2024-02-28T04:20:17;24.60;56.40
39751;DHT22;37579;51.074;17.004;2024-02-28T04:22:43;24.60;56.30
39751;DHT22;37579;51.074;17.004;2024-02-28T04:25:09;24.60;56.20
39751;DHT22;37579;51.074;17.004;2024-02-28T04:27:36;24.60;56.30
39751;DHT22;37579;51.074;17.004;2024-02-28T04:30:02;24.60;56.30
39751;DHT22;37579;51.074;17.004;2024-02-28T04:32:28;24.60;56.30
39751;DHT22;37579;51.074;17.004;2024-02-28T04:34:54;24.50;56.50
39751;DHT22;37579;51.074;17.004;2024-02-28T04:37:21;24.50;56.60
39751;DHT22;37579;51.074;17.004;2024-02-28T04:39:47;24.50;56.50
39751;DHT22;37579;51.074;17.004;2024-02-28T04:42:13;24.50;56.40
39751;DHT22;37579;51.074;17.004;2024-02-28T04:44:39;24.50;56.40
39751;DHT22;37579;51.074;17.004;2024-02-28T04:47:05;24.50;56.40
39751;DHT22;37579;51.074;17.004;2024-02-28T04:49:30;24.50;56.40
39751;DHT22;37579;51.074;17.004;2024-02-28T04:51:56;24.50;56.40
39751;DHT22;37579;51.074;17.004;2024-02-28T04:54:22;24.50;56.50
39751;DHT22;37579;51.074;17.004;2024-02-28T04:56:48;24.50;56.50
39751;DHT22;37579;51.074;17.004;2024-02-28T04:59:14;24.50;56.50
39751;DHT22;37579;51.074;17.004;2024-02-28T05:01:40;24.50;56.50
39751;DHT22;37579;51.074;17.004;2024-02-28T05:04:08;24.50;56.50
39751;DHT22;37579;51.074;17.004;2024-02-28T05:06:34;24.50;56.50
39751;DHT22;37579;51.074;17.004;2024-02-28T05:09:00;24.40;56.60
39751;DHT22;37579;51.074;17.004;2024-02-28T05:11:26;24.40;56.60
39751;DHT22;37579;51.074;17.004;2024-02-28T05:13:51;24.40;56.70
39751;DHT22;37579;51.074;17.004;2024-02-28T05:16:17;24.40;56.70
39751;DHT22;37579;51.074;17.004;2024-02-28T05:18:46;24.40;56.70
39751;DHT22;37579;51.074;17.004;2024-02-28T05:21:13;24.50;56.60
39751;DHT22;37579;51.074;17.004;2024-02-28T05:23:40;24.50;56.60
39751;DHT22;37579;51.074;17.004;2024-02-28T05:26:06;24.50;56.70
39751;DHT22;37579;51.074;17.004;2024-02-28T05:28:33;24.50;56.80
39751;DHT22;37579;51.074;17.004;2024-02-28T05:33:45;24.50;56.90
39751;DHT22;37579;51.074;17.004;2024-02-28T05:36:11;24.50;57.00
39751;DHT22;37579;51.074;17.004;2024-02-28T05:38:37;24.60;57.00
39751;DHT22;37579;51.074;17.004;2024-02-28T05:41:03;24.60;57.30
39751;DHT22;37579;51.074;17.004;2024-02-28T05:43:28;24.70;57.30
39751;DHT22;37579;51.074;17.004;2024-02-28T05:45:54;24.70;57.40
39751;DHT22;37579;51.074;17.004;2024-02-28T05:48:20;24.70;57.60
39751;DHT22;37579;51.074;17.004;2024-02-28T05:50:46;24.80;57.60
39751;DHT22;37579;51.074;17.004;2024-02-28T05:53:12;24.80;57.60
39751;DHT22;37579;51.074;17.004;2024-02-28T05:55:37;24.70;57.50
39751;DHT22;37579;51.074;17.004;2024-02-28T05:58:03;24.80;57.70
39751;DHT22;37579;51.074;17.004;2024-02-28T06:00:29;24.80;57.60
39751;DHT22;37579;51.074;17.004;2024-02-28T06:02:55;24.80;57.70
39751;DHT22;37579;51.074;17.004;2024-02-28T06:05:20;24.80;57.70
39751;DHT22;37579;51.074;17.004;2024-02-28T06:07:46;24.90;57.80
39751;DHT22;37579;51.074;17.004;2024-02-28T06:10:12;24.90;57.70
39751;DHT22;37579;51.074;17.004;2024-02-28T06:12:38;24.90;57.50
39751;DHT22;37579;51.074;17.004;2024-02-28T06:15:04;24.90;57.30
39751;DHT22;37579;51.074;17.004;2024-02-28T06:17:30;25.00;56.60
39751;DHT22;37579;51.074;17.004;2024-02-28T06:19:56;24.90;56.60
39751;DHT22;37579;51.074;17.004;2024-02-28T06:22:22;24.80;56.50
39751;DHT22;37579;51.074;17.004;2024-02-28T06:24:47;24.90;56.50
39751;DHT22;37579;51.074;17.004;2024-02-28T06:27:13;24.90;56.50
39751;DHT22;37579;51.074;17.004;2024-02-28T06:29:40;24.80;56.40
39751;DHT22;37579;51.074;17.004;2024-02-28T06:32:06;24.80;56.50
39751;DHT22;37579;51.074;17.004;2024-02-28T06:34:32;24.80;56.60
39751;DHT22;37579;51.074;17.004;2024-02-28T06:36:58;24.90;56.60
39751;DHT22;37579;51.074;17.004;2024-02-28T06:39:24;24.90;56.70
39751;DHT22;37579;51.074;17.004;2024-02-28T06:41:50;24.90;56.60
39751;DHT22;37579;51.074;17.004;2024-02-28T06:44:20;24.80;56.60
39751;DHT22;37579;51.074;17.004;2024-02-28T06:46:46;24.90;57.00
39751;DHT22;37579;51.074;17.004;2024-02-28T06:49:11;24.80;56.80
39751;DHT22;37579;51.074;17.004;2024-02-28T06:51:37;24.70;56.80
39751;DHT22;37579;51.074;17.004;2024-02-28T06:54:03;24.80;57.00
39751;DHT22;37579;51.074;17.004;2024-02-28T06:56:30;24.70;57.00
39751;DHT22;37579;51.074;17.004;2024-02-28T06:58:56;24.70;57.10
39751;DHT22;37579;51.074;17.004;2024-02-28T07:01:22;24.70;57.20
39751;DHT22;37579;51.074;17.004;2024-02-28T07:03:48;24.70;57.20
39751;DHT22;37579;51.074;17.004;2024-02-28T07:06:14;24.70;57.10
39751;DHT22;37579;51.074;17.004;2024-02-28T07:08:39;24.70;57.10
39751;DHT22;37579;51.074;17.004;2024-02-28T07:11:12;24.70;57.00
39751;DHT22;37579;51.074;17.004;2024-02-28T07:13:38;24.80;57.10
39751;DHT22;37579;51.074;17.004;2024-02-28T07:16:04;24.80;57.80
39751;DHT22;37579;51.074;17.004;2024-02-28T07:18:29;24.80;56.90
39751;DHT22;37579;51.074;17.004;2024-02-28T07:20:55;24.80;57.00
39751;DHT22;37579;51.074;17.004;2024-02-28T07:23:21;24.80;56.90
39751;DHT22;37579;51.074;17.004;2024-02-28T07:25:47;24.80;56.90
39751;DHT22;37579;51.074;17.004;2024-02-28T07:28:13;24.70;56.90
39751;DHT22;37579;51.074;17.004;2024-02-28T07:30:39;24.70;57.00
39751;DHT22;37579;51.074;17.004;2024-02-28T07:33:05;24.70;57.10
39751;DHT22;37579;51.074;17.004;2024-02-28T07:35:31;24.70;57.00
39751;DHT22;37579;51.074;17.004;2024-02-28T07:37:57;24.70;57.20
39751;DHT22;37579;51.074;17.004;2024-02-28T07:40:23;24.80;57.10
39751;DHT22;37579;51.074;17.004;2024-02-28T07:42:48;24.80;57.30
39751;DHT22;37579;51.074;17.004;2024-02-28T07:45:14;24.80;57.30
39751;DHT22;37579;51.074;17.004;2024-02-28T07:47:40;24.70;57.40
39751;DHT22;37579;51.074;17.004;2024-02-28T07:50:06;24.70;57.50
39751;DHT22;37579;51.074;17.004;2024-02-28T07:52:32;24.70;57.60
39751;DHT22;37579;51.074;17.004;2024-02-28T07:55:01;24.70;57.40
39751;DHT22;37579;51.074;17.004;2024-02-28T07:57:27;24.80;57.30
39751;DHT22;37579;51.074;17.004;2024-02-28T07:59:53;24.80;57.30
39751;DHT22;37579;51.074;17.004;2024-02-28T08:02:19;24.80;57.80
39751;DHT22;37579;51.074;17.004;2024-02-28T08:04:46;24.90;57.00
39751;DHT22;37579;51.074;17.004;2024-02-28T08:07:12;24.90;56.70
39751;DHT22;37579;51.074;17.004;2024-02-28T08:09:38;25.00;56.40
39751;DHT22;37579;51.074;17.004;2024-02-28T08:12:04;25.00;55.90
39751;DHT22;37579;51.074;17.004;2024-02-28T08:14:29;25.00;55.90
39751;DHT22;37579;51.074;17.004;2024-02-28T08:16:55;25.00;55.80
39751;DHT22;37579;51.074;17.004;2024-02-28T08:19:21;25.00;55.70
39751;DHT22;37579;51.074;17.004;2024-02-28T08:21:47;25.00;55.80
39751;DHT22;37579;51.074;17.004;2024-02-28T08:24:13;25.00;55.90
39751;DHT22;37579;51.074;17.004;2024-02-28T08:26:38;24.90;56.00
39751;DHT22;37579;51.074;17.004;2024-02-28T08:29:06;24.90;56.00
39751;DHT22;37579;51.074;17.004;2024-02-28T08:31:32;25.00;55.70
39751;DHT22;37579;51.074;17.004;2024-02-28T08:33:58;24.90;55.60
39751;DHT22;37579;51.074;17.004;2024-02-28T08:36:24;24.80;55.60
39751;DHT22;37579;51.074;17.004;2024-02-28T08:38:49;24.80;55.40
39751;DHT22;37579;51.074;17.004;2024-02-28T08:41:17;24.90;55.50
39751;DHT22;37579;51.074;17.004;2024-02-28T08:43:43;24.90;55.30
39751;DHT22;37579;51.074;17.004;2024-02-28T08:46:08;24.90;55.10
39751;DHT22;37579;51.074;17.004;2024-02-28T08:48:39;25.00;55.10
39751;DHT22;37579;51.074;17.004;2024-02-28T08:51:06;25.00;55.00
39751;DHT22;37579;51.074;17.004;2024-02-28T08:53:31;25.00;54.90
39751;DHT22;37579;51.074;17.004;2024-02-28T08:55:57;25.00;55.10
39751;DHT22;37579;51.074;17.004;2024-02-28T08:58:23;25.00;55.30
39751;DHT22;37579;51.074;17.004;2024-02-28T09:00:49;24.90;55.40
39751;DHT22;37579;51.074;17.004;2024-02-28T09:03:14;24.90;55.40
39751;DHT22;37579;51.074;17.004;2024-02-28T09:05:40;24.90;55.50
39751;DHT22;37579;51.074;17.004;2024-02-28T09:08:06;24.90;55.50
39751;DHT22;37579;51.074;17.004;2024-02-28T09:10:32;24.90;55.50
39751;DHT22;37579;51.074;17.004;2024-02-28T09:13:00;24.90;55.50
39751;DHT22;37579;51.074;17.004;2024-02-28T09:15:25;24.90;55.50
39751;DHT22;37579;51.074;17.004;2024-02-28T09:17:51;24.80;55.50
39751;DHT22;37579;51.074;17.004;2024-02-28T09:20:17;24.80;55.50
39751;DHT22;37579;51.074;17.004;2024-02-28T09:22:43;24.90;55.70
39751;DHT22;37579;51.074;17.004;2024-02-28T09:25:09;24.80;55.60
39751;DHT22;37579;51.074;17.004;2024-02-28T09:27:36;24.80;55.60
39751;DHT22;37579;51.074;17.004;2024-02-28T09:30:02;24.80;55.60
39751;DHT22;37579;51.074;17.004;2024-02-28T09:32:28;24.80;55.60
39751;DHT22;37579;51.074;17.004;2024-02-28T09:34:54;24.80;55.60
39751;DHT22;37579;51.074;17.004;2024-02-28T09:37:20;24.80;55.60
39751;DHT22;37579;51.074;17.004;2024-02-28T09:39:48;24.80;55.70
39751;DHT22;37579;51.074;17.004;2024-02-28T09:42:14;24.70;55.60
39751;DHT22;37579;51.074;17.004;2024-02-28T09:44:40;24.70;55.70
39751;DHT22;37579;51.074;17.004;2024-02-28T09:47:08;24.80;55.70
39751;DHT22;37579;51.074;17.004;2024-02-28T09:49:34;24.70;55.70
39751;DHT22;37579;51.074;17.004;2024-02-28T09:52:03;24.70;55.60
39751;DHT22;37579;51.074;17.004;2024-02-28T09:54:29;24.70;55.60
39751;DHT22;37579;51.074;17.004;2024-02-28T09:56:55;24.60;55.80
39751;DHT22;37579;51.074;17.004;2024-02-28T09:59:23;24.70;55.80
39751;DHT22;37579;51.074;17.004;2024-02-28T10:02:00;24.70;55.70
39751;DHT22;37579;51.074;17.004;2024-02-28T10:04:27;24.60;55.80
39751;DHT22;37579;51.074;17.004;2024-02-28T10:06:56;24.70;55.80
39751;DHT22;37579;51.074;17.004;2024-02-28T10:09:22;24.70;55.80
39751;DHT22;37579;51.074;17.004;2024-02-28T10:11:48;24.70;55.70
39751;DHT22;37579;51.074;17.004;2024-02-28T10:14:18;24.80;55.80
39751;DHT22;37579;51.074;17.004;2024-02-28T10:16:46;24.80;55.80
39751;DHT22;37579;51.074;17.004;2024-02-28T10:19:12;24.80;55.80
39751;DHT22;37579;51.074;17.004;2024-02-28T10:21:38;24.90;55.90
39751;DHT22;37579;51.074;17.004;2024-02-28T10:24:05;24.90;56.00
39751;DHT22;37579;51.074;17.004;2024-02-28T10:26:31;24.90;55.90
39751;DHT22;37579;51.074;17.004;2024-02-28T10:29:03;24.90;55.90
39751;DHT22;37579;51.074;17.004;2024-02-28T10:31:32;24.90;56.10
39751;DHT22;37579;51.074;17.004;2024-02-28T10:33:58;24.90;56.00
39751;DHT22;37579;51.074;17.004;2024-02-28T10:36:26;25.00;55.90
39751;DHT22;37579;51.074;17.004;2024-02-28T10:38:53;25.00;55.80
39751;DHT22;37579;51.074;17.004;2024-02-28T10:41:19;25.00;55.80
39751;DHT22;37579;51.074;17.004;2024-02-28T10:43:45;25.10;55.70
39751;DHT22;37579;51.074;17.004;2024-02-28T10:46:14;25.10;55.60
39751;DHT22;37579;51.074;17.004;2024-02-28T10:48:40;25.10;55.60
39751;DHT22;37579;51.074;17.004;2024-02-28T10:51:05;25.20;55.50
39751;DHT22;37579;51.074;17.004;2024-02-28T10:53:37;25.20;55.50
39751;DHT22;37579;51.074;17.004;2024-02-28T10:56:10;25.20;55.40
39751;DHT22;37579;51.074;17.004;2024-02-28T10:58:46;25.20;55.30
39751;DHT22;37579;51.074;17.004;2024-02-28T11:01:15;25.20;55.30
39751;DHT22;37579;51.074;17.004;2024-02-28T11:03:41;25.30;55.20
39751;DHT22;37579;51.074;17.004;2024-02-28T11:06:19;25.30;55.10
39751;DHT22;37579;51.074;17.004;2024-02-28T11:08:47;25.30;55.00
39751;DHT22;37579;51.074;17.004;2024-02-28T11:11:20;25.30;55.00
39751;DHT22;37579;51.074;17.004;2024-02-28T11:13:53;25.30;55.10
39751;DHT22;37579;51.074;17.004;2024-02-28T11:18:52;25.30;55.20
39751;DHT22;37579;51.074;17.004;2024-02-28T11:21:18;25.30;55.20
39751;DHT22;37579;51.074;17.004;2024-02-28T11:23:47;25.30;55.10
39751;DHT22;37579;51.074;17.004;2024-02-28T11:26:16;25.30;55.20
39751;DHT22;37579;51.074;17.004;2024-02-28T11:28:42;25.30;55.20
39751;DHT22;37579;51.074;17.004;2024-02-28T11:31:08;25.30;55.20
39751;DHT22;37579;51.074;17.004;2024-02-28T11:33:36;25.30;55.10
39751;DHT22;37579;51.074;17.004;2024-02-28T11:36:02;25.40;55.20
39751;DHT22;37579;51.074;17.004;2024-02-28T11:38:28;25.40;55.20
39751;DHT22;37579;51.074;17.004;2024-02-28T11:40:55;25.40;55.20
39751;DHT22;37579;51.074;17.004;2024-02-28T11:43:21;25.40;55.20
39751;DHT22;37579;51.074;17.004;2024-02-28T11:45:47;25.30;55.20
39751;DHT22;37579;51.074;17.004;2024-02-28T11:48:14;25.40;55.20
39751;DHT22;37579;51.074;17.004;2024-02-28T11:50:40;25.30;55.20
39751;DHT22;37579;51.074;17.004;2024-02-28T11:53:07;25.40;55.30
39751;DHT22;37579;51.074;17.004;2024-02-28T11:55:33;25.30;55.30
39751;DHT22;37579;51.074;17.004;2024-02-28T11:57:59;25.30;55.50
39751;DHT22;37579;51.074;17.004;2024-02-28T12:00:26;25.30;55.40
39751;DHT22;37579;51.074;17.004;2024-02-28T12:02:52;25.30;55.30
39751;DHT22;37579;51.074;17.004;2024-02-28T12:05:19;25.30;55.30
39751;DHT22;37579;51.074;17.004;2024-02-28T12:07:45;25.20;55.40
39751;DHT22;37579;51.074;17.004;2024-02-28T12:10:11;25.20;55.50
39751;DHT22;37579;51.074;17.004;2024-02-28T12:12:39;25.20;55.50
39751;DHT22;37579;51.074;17.004;2024-02-28T12:15:05;25.20;55.50
39751;DHT22;37579;51.074;17.004;2024-02-28T12:17:31;25.20;55.50
39751;DHT22;37579;51.074;17.004;2024-02-28T12:20:00;25.20;55.30
39751;DHT22;37579;51.074;17.004;2024-02-28T12:22:26;25.30;55.30
39751;DHT22;37579;51.074;17.004;2024-02-28T12:24:52;25.30;55.00
39751;DHT22;37579;51.074;17.004;2024-02-28T12:27:18;25.30;55.00
39751;DHT22;37579;51.074;17.004;2024-02-28T12:29:43;25.40;55.10
39751;DHT22;37579;51.074;17.004;2024-02-28T12:32:09;25.30;55.10
39751;DHT22;37579;51.074;17.004;2024-02-28T12:34:35;25.30;55.10
39751;DHT22;37579;51.074;17.004;2024-02-28T12:37:01;25.20;55.20
39751;DHT22;37579;51.074;17.004;2024-02-28T12:39:28;25.20;55.10
39751;DHT22;37579;51.074;17.004;2024-02-28T12:41:54;25.20;55.30
39751;DHT22;37579;51.074;17.004;2024-02-28T12:44:20;25.20;55.40
39751;DHT22;37579;51.074;17.004;2024-02-28T12:46:45;25.20;55.50
39751;DHT22;37579;51.074;17.004;2024-02-28T12:49:11;25.20;55.50
39751;DHT22;37579;51.074;17.004;2024-02-28T12:51:38;25.20;55.60
39751;DHT22;37579;51.074;17.004;2024-02-28T12:54:05;25.20;55.60
39751;DHT22;37579;51.074;17.004;2024-02-28T12:56:31;25.20;55.60
39751;DHT22;37579;51.074;17.004;2024-02-28T12:58:56;25.20;55.50
39751;DHT22;37579;51.074;17.004;2024-02-28T13:01:22;25.20;55.70
39751;DHT22;37579;51.074;17.004;2024-02-28T13:03:48;25.20;56.30
39751;DHT22;37579;51.074;17.004;2024-02-28T13:06:16;25.20;55.70
39751;DHT22;37579;51.074;17.004;2024-02-28T13:08:42;25.20;55.70
39751;DHT22;37579;51.074;17.004;2024-02-28T13:11:09;25.10;55.70
39751;DHT22;37579;51.074;17.004;2024-02-28T13:13:35;25.10;55.70
39751;DHT22;37579;51.074;17.004;2024-02-28T13:16:01;25.10;55.70
39751;DHT22;37579;51.074;17.004;2024-02-28T13:18:27;25.10;55.80
39751;DHT22;37579;51.074;17.004;2024-02-28T13:20:53;25.00;55.70
39751;DHT22;37579;51.074;17.004;2024-02-28T13:23:19;25.00;55.70
39751;DHT22;37579;51.074;17.004;2024-02-28T13:25:44;25.00;55.70
39751;DHT22;37579;51.074;17.004;2024-02-28T13:28:10;25.00;55.70
39751;DHT22;37579;51.074;17.004;2024-02-28T13:30:36;25.00;55.60
39751;DHT22;37579;51.074;17.004;2024-02-28T13:33:05;25.00;55.50
39751;DHT22;37579;51.074;17.004;2024-02-28T13:35:32;25.00;55.60
39751;DHT22;37579;51.074;17.004;2024-02-28T13:37:58;25.00;55.70
39751;DHT22;37579;51.074;17.004;2024-02-28T13:40:26;25.00;55.80
39751;DHT22;37579;51.074;17.004;2024-02-28T13:42:52;24.90;56.40
39751;DHT22;37579;51.074;17.004;2024-02-28T13:45:18;25.00;55.80
39751;DHT22;37579;51.074;17.004;2024-02-28T13:47:45;25.00;55.80
39751;DHT22;37579;51.074;17.004;2024-02-28T13:50:11;24.90;56.00
39751;DHT22;37579;51.074;17.004;2024-02-28T13:52:36;25.00;56.00
39751;DHT22;37579;51.074;17.004;2024-02-28T13:55:02;25.00;56.00
39751;DHT22;37579;51.074;17.004;2024-02-28T13:57:29;25.00;56.20
39751;DHT22;37579;51.074;17.004;2024-02-28T13:59:55;24.90;56.00
39751;DHT22;37579;51.074;17.004;2024-02-28T14:02:21;24.90;56.00
39751;DHT22;37579;51.074;17.004;2024-02-28T14:04:48;24.90;56.00
39751;DHT22;37579;51.074;17.004;2024-02-28T14:07:15;24.90;56.00
39751;DHT22;37579;51.074;17.004;2024-02-28T14:09:42;24.90;56.00
39751;DHT22;37579;51.074;17.004;2024-02-28T14:12:10;24.80;56.20
39751;DHT22;37579;51.074;17.004;2024-02-28T14:14:36;24.80;56.20
39751;DHT22;37579;51.074;17.004;2024-02-28T14:17:01;24.80;56.30
39751;DHT22;37579;51.074;17.004;2024-02-28T14:19:28;24.80;56.20
39751;DHT22;37579;51.074;17.004;2024-02-28T14:21:54;24.80;56.10
39751;DHT22;37579;51.074;17.004;2024-02-28T14:24:20;24.80;56.10
39751;DHT22;37579;51.074;17.004;2024-02-28T14:26:46;24.80;56.20
39751;DHT22;37579;51.074;17.004;2024-02-28T14:29:12;24.80;56.20
39751;DHT22;37579;51.074;17.004;2024-02-28T14:31:38;24.80;56.30
39751;DHT22;37579;51.074;17.004;2024-02-28T14:34:03;24.80;56.20
39751;DHT22;37579;51.074;17.004;2024-02-28T14:36:30;24.80;56.60
39751;DHT22;37579;51.074;17.004;2024-02-28T14:38:56;24.80;56.60
39751;DHT22;37579;51.074;17.004;2024-02-28T14:41:23;24.80;56.70
39751;DHT22;37579;51.074;17.004;2024-02-28T14:43:49;24.80;56.80
39751;DHT22;37579;51.074;17.004;2024-02-28T14:46:14;24.70;57.40
39751;DHT22;37579;51.074;17.004;2024-02-28T14:48:43;24.70;56.70
39751;DHT22;37579;51.074;17.004;2024-02-28T14:51:18;24.70;56.70
39751;DHT22;37579;51.074;17.004;2024-02-28T14:53:46;24.70;56.90
39751;DHT22;37579;51.074;17.004;2024-02-28T14:56:12;24.60;56.80
39751;DHT22;37579;51.074;17.004;2024-02-28T14:58:38;24.60;56.90
39751;DHT22;37579;51.074;17.004;2024-02-28T15:01:05;24.60;56.90
39751;DHT22;37579;51.074;17.004;2024-02-28T15:03:31;24.60;56.90
39751;DHT22;37579;51.074;17.004;2024-02-28T15:05:57;24.60;56.70
39751;DHT22;37579;51.074;17.004;2024-02-28T15:08:23;24.60;56.70
39751;DHT22;37579;51.074;17.004;2024-02-28T15:10:49;24.50;56.80
39751;DHT22;37579;51.074;17.004;2024-02-28T15:13:15;24.50;56.70
39751;DHT22;37579;51.074;17.004;2024-02-28T15:15:41;24.50;56.80